Time;durP1;ratioP1;P1;durP2;ratioP2;P2;SDS_P1;SDS_P2;PMS_P1;PMS_P2;Temp;Humidity;BMP_temperature;BMP_pressure;BME280_temperature;BME280_humidity;BME280_pressure;Samples;Min_cycle;Max_cycle;Signal;HPM_P1;HPM_P2
2023/05/30 00:02:20;;;;;;;;;;;21.60;64.30;;;;;;6154838;23;19924;-96
2023/05/30 00:05:13;;;;;;;;;;;21.30;65.90;;;;;;6130009;23;19909;-96
2023/05/30 00:07:45;;;;;;;;;;;21.20;66.70;;;;;;6154822;23;19905;-96
2023/05/30 00:26:14;;;;;;;;;;;20.40;70.60;;;;;;6206997;23;19931;-96
2023/05/30 00:28:43;;;;;;;;;;;20.40;71.50;;;;;;6227282;23;19920;-96
2023/05/30 00:31:20;;;;;;;;;;;20.30;72.30;;;;;;6244608;23;19899;-96
2023/05/30 00:33:53;;;;;;;;;;;20.20;73.10;;;;;;6216590;23;19904;-96
2023/05/30 00:36:25;;;;;;;;;;;20.10;73.50;;;;;;6244066;23;19904;-96
2023/05/30 00:38:55;;;;;;;;;;;20.00;73.30;;;;;;6213097;23;19955;-96
2023/05/30 00:41:29;;;;;;;;;;;20.00;73.00;;;;;;6218356;23;19927;-96
2023/05/30 00:43:58;;;;;;;;;;;19.90;73.10;;;;;;6205367;23;19889;-96
2023/05/30 00:46:31;;;;;;;;;;;19.90;73.40;;;;;;6188368;22;19948;-96
2023/05/30 00:49:35;;;;;;;;;;;20.00;74.00;;;;;;6181863;23;19894;-96
2023/05/30 00:52:08;;;;;;;;;;;20.10;73.90;;;;;;6214342;22;19944;-96
2023/05/30 01:03:36;;;;;;;;;;;20.20;74.30;;;;;;6192533;23;19904;-96
2023/05/30 01:06:10;;;;;;;;;;;20.20;72.90;;;;;;6189193;23;19913;-96
2023/05/30 01:08:48;;;;;;;;;;;20.30;72.50;;;;;;6186446;23;19919;-96
2023/05/30 01:11:24;;;;;;;;;;;20.30;72.80;;;;;;6175954;23;19904;-96
2023/05/30 01:14:00;;;;;;;;;;;20.30;72.80;;;;;;6213706;23;19908;-96
2023/05/30 01:16:30;;;;;;;;;;;20.00;74.60;;;;;;6211992;23;19888;-96
2023/05/30 01:19:23;;;;;;;;;;;19.80;75.20;;;;;;6162401;23;19904;-96
2023/05/30 01:21:55;;;;;;;;;;;19.70;75.70;;;;;;6129065;23;19928;-96
2023/05/30 01:24:40;;;;;;;;;;;19.60;76.20;;;;;;6213160;23;19912;-96
2023/05/30 01:27:40;;;;;;;;;;;19.60;76.90;;;;;;6210374;23;19888;-96
2023/05/30 01:30:14;;;;;;;;;;;19.50;77.10;;;;;;6186120;23;19932;-96
2023/05/30 01:32:48;;;;;;;;;;;19.50;77.50;;;;;;6197756;23;19904;-96
2023/05/30 01:35:26;;;;;;;;;;;19.40;77.90;;;;;;6186372;23;19908;-96
2023/05/30 01:38:01;;;;;;;;;;;19.40;77.90;;;;;;6186865;23;19905;-96
2023/05/30 01:40:29;;;;;;;;;;;19.30;78.30;;;;;;6185800;23;19915;-96
2023/05/30 01:43:28;;;;;;;;;;;19.30;78.60;;;;;;6211578;23;19904;-96
2023/05/30 01:46:10;;;;;;;;;;;19.20;78.50;;;;;;6156622;23;19912;-96
2023/05/30 01:48:49;;;;;;;;;;;19.10;78.90;;;;;;6154873;23;19916;-96
2023/05/30 01:51:33;;;;;;;;;;;19.10;79.20;;;;;;6183845;23;19909;-96
2023/05/30 01:54:08;;;;;;;;;;;19.10;79.20;;;;;;6183213;23;19893;-96
2023/05/30 01:56:40;;;;;;;;;;;19.10;79.10;;;;;;6175097;23;19900;-96
2023/05/30 01:59:24;;;;;;;;;;;19.10;79.00;;;;;;6177364;23;19909;-96
2023/05/30 02:01:57;;;;;;;;;;;19.10;79.00;;;;;;6158318;23;19893;-96
2023/05/30 02:04:31;;;;;;;;;;;19.00;79.10;;;;;;6186958;23;19995;-96
2023/05/30 02:07:10;;;;;;;;;;;19.00;79.40;;;;;;6210125;23;20001;-96
2023/05/30 02:09:42;;;;;;;;;;;19.00;79.20;;;;;;6185780;23;19892;-96
2023/05/30 02:12:11;;;;;;;;;;;19.00;79.30;;;;;;6207499;22;19892;-96
2023/05/30 02:14:43;;;;;;;;;;;18.80;79.60;;;;;;6186975;23;19907;-96
2023/05/30 02:17:13;;;;;;;;;;;18.80;79.80;;;;;;6187647;23;19912;-96
2023/05/30 02:19:45;;;;;;;;;;;18.80;80.00;;;;;;6186719;23;19889;-96
2023/05/30 02:22:25;;;;;;;;;;;18.80;80.40;;;;;;6189454;22;19912;-96
2023/05/30 02:28:00;;;;;;;;;;;18.80;80.10;;;;;;6147671;23;19904;-96
2023/05/30 02:30:30;;;;;;;;;;;18.80;79.80;;;;;;6243477;23;19908;-96
2023/05/30 02:32:59;;;;;;;;;;;18.80;79.30;;;;;;6216124;23;19904;-96
2023/05/30 02:35:33;;;;;;;;;;;18.80;79.30;;;;;;6214694;23;19904;-96
2023/05/30 02:38:02;;;;;;;;;;;18.80;79.20;;;;;;6217696;23;19912;-96
2023/05/30 02:40:37;;;;;;;;;;;18.80;79.30;;;;;;6218536;23;19892;-96
2023/05/30 02:43:16;;;;;;;;;;;18.80;79.40;;;;;;6217603;23;19908;-96
2023/05/30 02:45:45;;;;;;;;;;;18.80;79.30;;;;;;6165352;23;19931;-96
2023/05/30 02:48:17;;;;;;;;;;;18.90;79.80;;;;;;6214555;23;19935;-96
2023/05/30 02:50:56;;;;;;;;;;;18.90;79.00;;;;;;6210756;23;19899;-96
2023/05/30 02:53:31;;;;;;;;;;;18.90;78.80;;;;;;6183949;23;19912;-96
2023/05/30 02:56:01;;;;;;;;;;;18.90;78.80;;;;;;6215376;23;19927;-96
2023/05/30 02:58:35;;;;;;;;;;;18.90;78.80;;;;;;6211918;23;20349;-96
2023/05/30 03:01:05;;;;;;;;;;;18.90;78.90;;;;;;6188238;23;19892;-96
2023/05/30 03:03:37;;;;;;;;;;;19.00;79.00;;;;;;6185849;23;19923;-96
2023/05/30 03:06:23;;;;;;;;;;;19.00;80.40;;;;;;6215330;23;19898;-96
2023/05/30 03:09:12;;;;;;;;;;;19.00;80.40;;;;;;6213260;23;19896;-96
2023/05/30 03:11:56;;;;;;;;;;;19.10;79.80;;;;;;6213825;23;19908;-96
2023/05/30 03:14:32;;;;;;;;;;;19.10;79.00;;;;;;6189674;23;20084;-96
2023/05/30 03:17:01;;;;;;;;;;;19.10;78.20;;;;;;6189676;23;19901;-96
2023/05/30 03:19:43;;;;;;;;;;;19.10;77.60;;;;;;6213288;23;19893;-96
2023/05/30 03:22:14;;;;;;;;;;;19.10;78.00;;;;;;6211996;23;19944;-96
2023/05/30 03:24:43;;;;;;;;;;;19.10;78.90;;;;;;6187334;23;19940;-96
2023/05/30 03:27:15;;;;;;;;;;;19.10;78.60;;;;;;6209673;23;19904;-96
2023/05/30 03:29:53;;;;;;;;;;;19.10;77.10;;;;;;6187246;23;19912;-96
2023/05/30 03:32:21;;;;;;;;;;;19.10;77.30;;;;;;6188089;23;19922;-96
2023/05/30 03:35:05;;;;;;;;;;;19.10;77.20;;;;;;6213471;23;19913;-96
2023/05/30 03:37:34;;;;;;;;;;;19.10;76.40;;;;;;6181913;23;19900;-96
2023/05/30 04:06:02;;;;;;;;;;;19.10;80.40;;;;;;6197454;23;19926;-96
2023/05/30 04:08:57;;;;;;;;;;;18.90;80.60;;;;;;6182710;23;19923;-96
2023/05/30 04:11:35;;;;;;;;;;;18.80;81.50;;;;;;6203566;23;19911;-96
2023/05/30 04:14:12;;;;;;;;;;;18.80;81.40;;;;;;6218601;23;19911;-96
2023/05/30 04:16:45;;;;;;;;;;;18.80;80.00;;;;;;6217809;23;19900;-96
2023/05/30 04:29:46;;;;;;;;;;;18.90;80.80;;;;;;6138544;23;19916;-96
2023/05/30 04:32:33;;;;;;;;;;;18.80;80.70;;;;;;6230074;23;19936;-96
2023/05/30 04:50:54;;;;;;;;;;;18.80;81.90;;;;;;6161262;23;19904;-96
2023/05/30 04:53:27;;;;;;;;;;;18.80;82.30;;;;;;6183807;23;19897;-96
2023/05/30 05:27:49;;;;;;;;;;;20.00;74.30;;;;;;6117891;23;19931;-96
2023/05/30 05:30:19;;;;;;;;;;;20.10;73.80;;;;;;6218010;23;19907;-96
2023/05/30 05:32:57;;;;;;;;;;;20.20;73.90;;;;;;6241988;22;19892;-96
2023/05/30 05:35:29;;;;;;;;;;;20.30;73.40;;;;;;6218034;23;19953;-96
2023/05/30 05:38:18;;;;;;;;;;;20.50;72.70;;;;;;6214092;23;19916;-96
2023/05/30 05:40:45;;;;;;;;;;;20.50;72.90;;;;;;6216724;23;19919;-96
2023/05/30 05:43:15;;;;;;;;;;;20.60;73.20;;;;;;6214375;23;19920;-96
2023/05/30 05:45:40;;;;;;;;;;;20.70;73.60;;;;;;6174332;23;19904;-96
2023/05/30 05:48:06;;;;;;;;;;;20.80;72.80;;;;;;6192608;23;19923;-96
2023/05/30 05:50:32;;;;;;;;;;;20.80;72.70;;;;;;6251978;23;19958;-96
2023/05/30 05:52:57;;;;;;;;;;;20.90;72.90;;;;;;6253671;23;19918;-94
2023/05/30 05:55:23;;;;;;;;;;;21.00;72.10;;;;;;6249409;23;19907;-95
2023/05/30 05:57:52;;;;;;;;;;;21.00;72.10;;;;;;6251540;23;19907;-96
2023/05/30 06:10:53;;;;;;;;;;;;;;;;;;5155957;27;20296;-96
2023/05/30 07:31:30;;;;;;;;;;;;;;;;;;6357430;22;19902;-96
2023/05/30 07:39:31;;;;;;;;;;;;;;;;;;6338193;22;19918;-96
2023/05/30 07:42:04;;;;;;;;;;;;;;;;;;6344435;22;19907;-96
2023/05/30 07:44:30;;;;;;;;;;;;;;;;;;6317655;22;19891;-96
2023/05/30 07:49:42;;;;;;;;;;;;;;;;;;6323477;22;19919;-96
2023/05/30 07:52:10;;;;;;;;;;;;;;;;;;6336492;22;19951;-96
2023/05/30 07:54:36;;;;;;;;;;;;;;;;;;6329164;22;19927;-96
2023/05/30 07:57:02;;;;;;;;;;;;;;;;;;6317156;22;19910;-96
2023/05/30 07:59:28;;;;;;;;;;;;;;;;;;6322024;22;19905;-96
2023/05/30 08:01:54;;;;;;;;;;;;;;;;;;6318856;22;19986;-94
2023/05/30 08:04:23;;;;;;;;;;;;;;;;;;6324629;22;20455;-96
2023/05/30 11:59:11;;;;;;;;;;;;;;;;;;6293584;22;19945;-96
2023/05/30 12:14:36;;;;;;;;;;;;;;;;;;6301256;22;19926;-96
